Time;durP1;ratioP1;P1;durP2;ratioP2;P2;SDS_P1;SDS_P2;PMS_P1;PMS_P2;Temp;Humidity;BMP_temperature;BMP_pressure;BME280_temperature;BME280_humidity;BME280_pressure;Samples;Min_cycle;Max_cycle;Signal;HPM_P1;HPM_P2
2023/03/23 00:00:50;;;;;;;17.30;8.93;;;;;;;;;;5116464;28;20031;-74
2023/03/23 00:03:17;;;;;;;24.67;10.30;;;;;;;;;;5118472;28;20031;-73
2023/03/23 00:05:50;;;;;;;18.02;9.27;;;;;;;;;;5100630;28;20043;-74
2023/03/23 00:08:22;;;;;;;21.23;10.52;;;;;;;;;;5118209;28;20063;-73
2023/03/23 00:10:58;;;;;;;17.70;10.52;;;;;;;;;;5115349;28;20496;-75
2023/03/23 00:13:24;;;;;;;19.52;11.25;;;;;;;;;;5113042;28;20100;-74
2023/03/23 00:15:51;;;;;;;23.02;11.50;;;;;;;;;;5113064;28;20028;-75
2023/03/23 00:18:21;;;;;;;22.70;12.90;;;;;;;;;;5113286;28;20082;-73
2023/03/23 00:20:48;;;;;;;25.35;14.18;;;;;;;;;;5112740;28;20057;-74
2023/03/23 00:23:18;;;;;;;21.70;13.63;;;;;;;;;;5112416;28;20016;-74
2023/03/23 00:25:45;;;;;;;22.40;14.32;;;;;;;;;;5113037;28;20023;-75
2023/03/23 00:28:12;;;;;;;23.00;14.55;;;;;;;;;;5113494;28;20028;-75
2023/03/23 00:30:39;;;;;;;24.20;14.75;;;;;;;;;;5113550;28;20080;-73
2023/03/23 00:33:05;;;;;;;26.27;15.10;;;;;;;;;;5113365;28;20115;-74
2023/03/23 00:35:31;;;;;;;28.02;16.20;;;;;;;;;;5114059;28;20035;-73
2023/03/23 00:37:58;;;;;;;22.40;15.00;;;;;;;;;;5113519;28;20028;-74
2023/03/23 00:40:26;;;;;;;21.80;15.52;;;;;;;;;;5113594;28;20100;-72
2023/03/23 00:42:52;;;;;;;27.70;16.67;;;;;;;;;;5113539;28;20019;-74
2023/03/23 00:45:18;;;;;;;25.52;16.77;;;;;;;;;;5113378;28;20023;-74
2023/03/23 00:47:46;;;;;;;28.75;17.17;;;;;;;;;;5113379;28;20070;-73
2023/03/23 00:50:13;;;;;;;27.83;17.02;;;;;;;;;;5113428;28;20015;-74
2023/03/23 00:52:39;;;;;;;23.70;18.17;;;;;;;;;;5113297;28;20062;-76
2023/03/23 00:55:05;;;;;;;30.95;17.88;;;;;;;;;;5113356;28;20041;-75
2023/03/23 00:57:32;;;;;;;23.38;17.60;;;;;;;;;;5112924;28;20059;-76
2023/03/23 00:59:57;;;;;;;26.27;18.33;;;;;;;;;;5112176;28;20023;-76
2023/03/23 01:02:27;;;;;;;24.98;18.33;;;;;;;;;;5104886;28;20370;-73
2023/03/23 01:04:53;;;;;;;26.88;17.63;;;;;;;;;;5111485;28;20015;-75
2023/03/23 01:07:20;;;;;;;28.70;17.95;;;;;;;;;;5111637;28;20035;-73
2023/03/23 01:09:46;;;;;;;28.45;17.15;;;;;;;;;;5112035;28;20050;-73
2023/03/23 01:12:13;;;;;;;22.00;17.80;;;;;;;;;;5111500;28;20468;-74
2023/03/23 01:14:39;;;;;;;25.65;18.15;;;;;;;;;;5112065;28;20254;-76
2023/03/23 01:17:05;;;;;;;21.75;17.77;;;;;;;;;;5111702;28;20016;-75
2023/03/23 01:19:31;;;;;;;22.77;17.63;;;;;;;;;;5111835;28;20023;-73
2023/03/23 01:21:57;;;;;;;28.10;18.45;;;;;;;;;;5111447;28;20030;-74
2023/03/23 01:24:23;;;;;;;24.23;17.65;;;;;;;;;;5111629;28;20023;-74
2023/03/23 01:26:49;;;;;;;26.23;17.25;;;;;;;;;;5111608;28;20023;-74
2023/03/23 01:29:15;;;;;;;27.00;18.25;;;;;;;;;;5111756;28;20055;-73
2023/03/23 01:31:42;;;;;;;24.20;18.55;;;;;;;;;;5111455;28;20020;-75
2023/03/23 01:34:10;;;;;;;25.75;19.25;;;;;;;;;;5111902;28;20012;-75
2023/03/23 01:36:36;;;;;;;25.17;19.60;;;;;;;;;;5111387;28;20495;-74
2023/03/23 01:39:03;;;;;;;28.20;20.17;;;;;;;;;;5111590;28;20023;-73
2023/03/23 01:41:29;;;;;;;26.40;19.48;;;;;;;;;;5111427;28;20031;-74
2023/03/23 01:44:01;;;;;;;32.45;20.13;;;;;;;;;;5111322;28;20064;-74
2023/03/23 01:46:28;;;;;;;28.65;19.70;;;;;;;;;;5111190;28;20106;-74
2023/03/23 01:48:54;;;;;;;28.58;20.40;;;;;;;;;;5112156;28;20032;-74
2023/03/23 01:51:21;;;;;;;33.30;20.27;;;;;;;;;;5111427;28;20024;-74
2023/03/23 01:53:50;;;;;;;28.80;20.85;;;;;;;;;;5112355;28;20055;-75
2023/03/23 01:56:20;;;;;;;28.88;21.17;;;;;;;;;;5129357;28;20032;-75
2023/03/23 01:58:46;;;;;;;38.70;22.23;;;;;;;;;;5134128;28;20004;-73
2023/03/23 02:01:13;;;;;;;34.38;22.05;;;;;;;;;;5125619;28;20023;-73
2023/03/23 02:03:42;;;;;;;33.08;21.55;;;;;;;;;;5131546;28;20045;-72
2023/03/23 02:06:08;;;;;;;34.65;23.02;;;;;;;;;;5117622;28;20070;-73
2023/03/23 02:08:34;;;;;;;35.20;23.60;;;;;;;;;;5116653;28;20032;-74
2023/03/23 02:11:00;;;;;;;33.72;22.52;;;;;;;;;;5115481;27;20023;-75
2023/03/23 02:13:27;;;;;;;32.45;23.42;;;;;;;;;;5114709;28;20477;-74
2023/03/23 02:15:53;;;;;;;33.20;23.13;;;;;;;;;;5120367;28;20023;-74
2023/03/23 02:18:42;;;;;;;31.10;23.27;;;;;;;;;;5118975;28;20026;-73
2023/03/23 02:21:16;;;;;;;32.55;23.48;;;;;;;;;;5114315;28;20038;-74
2023/03/23 02:23:42;;;;;;;31.42;22.63;;;;;;;;;;5115113;28;20127;-74
2023/03/23 02:26:27;;;;;;;31.67;21.92;;;;;;;;;;5115215;28;20103;-75
2023/03/23 02:29:08;;;;;;;30.13;20.60;;;;;;;;;;5116667;28;20031;-73
2023/03/23 02:32:00;;;;;;;31.33;20.80;;;;;;;;;;5114767;28;20046;-74
2023/03/23 02:34:49;;;;;;;27.92;20.65;;;;;;;;;;5099133;27;20051;-74
2023/03/23 02:37:21;;;;;;;29.92;19.95;;;;;;;;;;5111247;28;20085;-75
2023/03/23 02:39:53;;;;;;;31.20;19.77;;;;;;;;;;5113922;28;20020;-74
2023/03/23 02:42:22;;;;;;;29.60;21.48;;;;;;;;;;5113953;28;20020;-74
2023/03/23 02:44:49;;;;;;;26.75;19.55;;;;;;;;;;5115602;28;20024;-76
2023/03/23 02:47:17;;;;;;;34.58;19.63;;;;;;;;;;5115803;28;20430;-73
2023/03/23 02:49:45;;;;;;;26.08;19.65;;;;;;;;;;5117489;28;20455;-74
2023/03/23 02:52:15;;;;;;;27.70;19.50;;;;;;;;;;5116063;28;20024;-73
2023/03/23 02:54:42;;;;;;;27.08;18.70;;;;;;;;;;5115598;28;20110;-74
2023/03/23 02:57:09;;;;;;;25.20;18.63;;;;;;;;;;5114548;28;20028;-73
2023/03/23 02:59:35;;;;;;;26.85;19.35;;;;;;;;;;5116238;28;20086;-74
2023/03/23 03:02:10;;;;;;;32.38;18.77;;;;;;;;;;5115715;28;20477;-74
2023/03/23 03:04:40;;;;;;;25.13;18.60;;;;;;;;;;5116481;28;20095;-75
2023/03/23 03:07:21;;;;;;;29.80;19.00;;;;;;;;;;5115896;28;20043;-72
2023/03/23 03:09:53;;;;;;;26.58;17.45;;;;;;;;;;5115912;28;20031;-72
2023/03/23 03:12:38;;;;;;;28.98;17.50;;;;;;;;;;5115468;28;20024;-72
2023/03/23 03:15:11;;;;;;;30.40;17.05;;;;;;;;;;5116015;28;20444;-72
2023/03/23 03:17:43;;;;;;;31.58;18.02;;;;;;;;;;5114668;28;20043;-73
2023/03/23 03:20:10;;;;;;;23.17;16.42;;;;;;;;;;5115423;28;20274;-74
2023/03/23 03:22:38;;;;;;;23.60;16.52;;;;;;;;;;5114641;28;20107;-75
2023/03/23 03:25:06;;;;;;;25.70;17.75;;;;;;;;;;5114810;28;20051;-73
2023/03/23 03:27:32;;;;;;;27.52;16.85;;;;;;;;;;5113522;28;20066;-72
2023/03/23 03:30:00;;;;;;;22.80;16.42;;;;;;;;;;5112341;28;20045;-75
2023/03/23 03:32:32;;;;;;;23.73;15.90;;;;;;;;;;5114588;28;20089;-75
2023/03/23 03:35:03;;;;;;;23.98;15.35;;;;;;;;;;5114773;28;20024;-75
2023/03/23 03:37:33;;;;;;;22.75;15.95;;;;;;;;;;5114537;28;20031;-75
2023/03/23 03:40:00;;;;;;;25.70;16.55;;;;;;;;;;5114618;27;20024;-74
2023/03/23 03:42:26;;;;;;;22.38;16.55;;;;;;;;;;5115078;28;20035;-72
2023/03/23 03:44:52;;;;;;;21.23;16.67;;;;;;;;;;5116829;28;20012;-73
2023/03/23 03:47:18;;;;;;;22.50;16.65;;;;;;;;;;5116596;28;20453;-74
2023/03/23 03:49:44;;;;;;;24.60;16.90;;;;;;;;;;5118886;28;20027;-73
2023/03/23 03:52:10;;;;;;;30.05;17.35;;;;;;;;;;5118564;28;20023;-75
2023/03/23 03:54:36;;;;;;;26.92;16.95;;;;;;;;;;5116860;28;20023;-73
2023/03/23 03:57:02;;;;;;;26.95;16.55;;;;;;;;;;5116552;28;20035;-75
2023/03/23 03:59:30;;;;;;;23.23;16.17;;;;;;;;;;5117403;28;20461;-73
2023/03/23 04:01:56;;;;;;;24.73;15.13;;;;;;;;;;5116102;28;20401;-75
2023/03/23 04:04:22;;;;;;;26.05;15.85;;;;;;;;;;5113993;28;20023;-73
2023/03/23 04:06:48;;;;;;;22.45;15.45;;;;;;;;;;5113787;28;20118;-72
2023/03/23 04:09:15;;;;;;;23.35;14.43;;;;;;;;;;5113815;28;20020;-74
2023/03/23 04:11:41;;;;;;;20.60;13.82;;;;;;;;;;5114214;28;20072;-74
2023/03/23 04:14:07;;;;;;;19.35;13.80;;;;;;;;;;5113733;28;20031;-74
2023/03/23 04:16:34;;;;;;;24.70;13.20;;;;;;;;;;5113564;27;20118;-74
2023/03/23 04:19:00;;;;;;;16.88;13.55;;;;;;;;;;5114278;28;20061;-73
2023/03/23 04:21:29;;;;;;;22.48;14.13;;;;;;;;;;5113789;27;20046;-75
2023/03/23 04:23:58;;;;;;;23.83;14.20;;;;;;;;;;5113303;28;20020;-73
2023/03/23 04:26:25;;;;;;;20.70;13.93;;;;;;;;;;5113365;27;20119;-75
2023/03/23 04:28:51;;;;;;;33.45;16.05;;;;;;;;;;5112881;28;20023;-73
2023/03/23 04:31:17;;;;;;;28.80;14.90;;;;;;;;;;5113222;28;20531;-73
2023/03/23 04:33:43;;;;;;;21.23;14.25;;;;;;;;;;5112014;28;20408;-72
2023/03/23 04:36:10;;;;;;;25.33;15.73;;;;;;;;;;5113545;28;20023;-71
2023/03/23 04:38:36;;;;;;;27.30;15.13;;;;;;;;;;5113407;28;20016;-71
2023/03/23 04:41:02;;;;;;;25.08;14.40;;;;;;;;;;5113488;28;20058;-73
2023/03/23 04:43:29;;;;;;;22.77;14.35;;;;;;;;;;5112873;28;20023;-72
2023/03/23 04:45:58;;;;;;;18.55;14.35;;;;;;;;;;5112210;28;20031;-71
2023/03/23 04:48:27;;;;;;;20.80;14.80;;;;;;;;;;5112403;28;20452;-72
2023/03/23 04:50:54;;;;;;;20.85;14.02;;;;;;;;;;5112330;28;20027;-76
2023/03/23 04:53:21;;;;;;;26.88;15.13;;;;;;;;;;5112149;28;20504;-73
2023/03/23 04:55:47;;;;;;;26.55;14.88;;;;;;;;;;5111822;28;20031;-72
2023/03/23 04:58:14;;;;;;;24.77;15.80;;;;;;;;;;5106160;28;20026;-76
2023/03/23 05:00:43;;;;;;;21.48;13.77;;;;;;;;;;5104349;28;20036;-76
2023/03/23 05:03:10;;;;;;;30.88;18.50;;;;;;;;;;5111937;28;20437;-75
2023/03/23 05:05:36;;;;;;;22.23;15.02;;;;;;;;;;5110318;28;20505;-77
2023/03/23 05:08:02;;;;;;;24.30;15.13;;;;;;;;;;5112192;28;20382;-76
2023/03/23 05:10:28;;;;;;;21.30;15.23;;;;;;;;;;5090922;28;20012;-76
2023/03/23 05:12:54;;;;;;;23.15;15.20;;;;;;;;;;5116349;28;20023;-77
2023/03/23 05:15:21;;;;;;;23.75;15.35;;;;;;;;;;5104336;28;20016;-72
2023/03/23 05:17:48;;;;;;;24.90;15.63;;;;;;;;;;5111434;28;20035;-71
2023/03/23 05:20:18;;;;;;;19.73;15.23;;;;;;;;;;5111641;28;20411;-71
2023/03/23 05:22:44;;;;;;;22.08;14.70;;;;;;;;;;5111219;28;20027;-71
2023/03/23 05:25:10;;;;;;;22.67;15.10;;;;;;;;;;5111703;28;20023;-72
2023/03/23 05:27:37;;;;;;;23.77;15.60;;;;;;;;;;5111315;28;20035;-71
2023/03/23 05:30:03;;;;;;;25.35;15.40;;;;;;;;;;5111253;28;20481;-72
2023/03/23 05:32:30;;;;;;;28.13;16.98;;;;;;;;;;5110594;28;20028;-77
2023/03/23 05:34:57;;;;;;;22.75;15.20;;;;;;;;;;5109714;28;20020;-76
2023/03/23 05:37:23;;;;;;;22.90;15.15;;;;;;;;;;5118426;28;20047;-77
2023/03/23 05:39:53;;;;;;;24.10;14.80;;;;;;;;;;5100651;28;20020;-75
2023/03/23 05:42:19;;;;;;;23.10;14.10;;;;;;;;;;5098546;28;20031;-76
2023/03/23 05:44:45;;;;;;;25.17;15.20;;;;;;;;;;5096111;28;20031;-72
2023/03/23 05:47:11;;;;;;;21.95;15.13;;;;;;;;;;5114183;28;20436;-74
2023/03/23 05:49:37;;;;;;;24.38;14.63;;;;;;;;;;5114482;28;20099;-71
2023/03/23 05:52:04;;;;;;;20.30;13.93;;;;;;;;;;5123270;28;20080;-71
2023/03/23 05:54:30;;;;;;;21.02;13.50;;;;;;;;;;5124643;28;20031;-71
2023/03/23 05:56:56;;;;;;;27.20;14.65;;;;;;;;;;5113016;28;20024;-72
2023/03/23 05:59:22;;;;;;;23.95;14.18;;;;;;;;;;5111472;28;20019;-73
2023/03/23 06:01:48;;;;;;;25.33;12.68;;;;;;;;;;5111143;28;20432;-73
2023/03/23 06:04:14;;;;;;;21.45;13.10;;;;;;;;;;5093262;28;20106;-71
2023/03/23 06:06:41;;;;;;;23.58;13.82;;;;;;;;;;5111160;28;20075;-71
2023/03/23 06:09:08;;;;;;;26.02;13.25;;;;;;;;;;5111178;28;20035;-74
2023/03/23 06:11:34;;;;;;;20.65;13.35;;;;;;;;;;5111222;28;20462;-77
2023/03/23 06:14:00;;;;;;;20.88;12.50;;;;;;;;;;5111319;28;20030;-74
2023/03/23 06:16:26;;;;;;;23.17;13.02;;;;;;;;;;5106859;28;20023;-75
2023/03/23 06:18:52;;;;;;;26.80;13.02;;;;;;;;;;5112588;28;20062;-73
2023/03/23 06:21:18;;;;;;;22.27;12.75;;;;;;;;;;5113190;28;20031;-74
2023/03/23 06:23:45;;;;;;;17.20;11.40;;;;;;;;;;5109439;28;20028;-73
2023/03/23 06:26:14;;;;;;;26.23;12.20;;;;;;;;;;5090744;28;20020;-74
2023/03/23 06:28:40;;;;;;;17.55;11.68;;;;;;;;;;5111410;28;20036;-76
2023/03/23 06:31:07;;;;;;;19.67;11.35;;;;;;;;;;5119958;28;20085;-74
2023/03/23 06:33:34;;;;;;;19.20;10.98;;;;;;;;;;5110930;28;20035;-74
2023/03/23 06:36:00;;;;;;;22.80;10.93;;;;;;;;;;5105126;28;20048;-74
2023/03/23 06:38:26;;;;;;;18.70;10.65;;;;;;;;;;5111017;28;20366;-75
2023/03/23 06:40:55;;;;;;;21.27;10.63;;;;;;;;;;5109340;28;20024;-74
2023/03/23 06:43:21;;;;;;;19.75;10.00;;;;;;;;;;5110114;28;20059;-72
2023/03/23 06:45:47;;;;;;;19.90;10.15;;;;;;;;;;5110637;28;20038;-75
2023/03/23 06:48:13;;;;;;;18.27;9.52;;;;;;;;;;5110674;28;20102;-74
2023/03/23 06:50:39;;;;;;;17.58;10.20;;;;;;;;;;5110369;28;20358;-75
2023/03/23 06:53:05;;;;;;;18.83;9.50;;;;;;;;;;5112642;28;20031;-72
2023/03/23 06:55:31;;;;;;;19.27;9.02;;;;;;;;;;5113513;28;20461;-76
2023/03/23 06:57:59;;;;;;;14.50;9.25;;;;;;;;;;5114292;28;20027;-73
2023/03/23 07:00:25;;;;;;;19.67;8.88;;;;;;;;;;5114138;28;20115;-74
2023/03/23 07:02:51;;;;;;;16.25;8.32;;;;;;;;;;5114343;28;20473;-74
2023/03/23 07:05:17;;;;;;;12.50;7.63;;;;;;;;;;5114108;28;20492;-71
2023/03/23 07:07:43;;;;;;;14.15;8.18;;;;;;;;;;5113803;28;20397;-73
2023/03/23 07:10:11;;;;;;;15.40;7.35;;;;;;;;;;5112819;28;20057;-73
2023/03/23 07:12:37;;;;;;;14.70;7.95;;;;;;;;;;5110835;28;20384;-75
2023/03/23 07:15:03;;;;;;;13.63;7.18;;;;;;;;;;5109807;28;20084;-74
2023/03/23 07:17:29;;;;;;;13.65;6.82;;;;;;;;;;5113903;28;20514;-75
2023/03/23 07:19:56;;;;;;;11.52;6.82;;;;;;;;;;5113782;28;20023;-74
2023/03/23 07:22:22;;;;;;;12.18;6.45;;;;;;;;;;5114330;28;20016;-76
2023/03/23 07:24:48;;;;;;;10.75;6.63;;;;;;;;;;5114959;28;20027;-72
2023/03/23 07:27:14;;;;;;;11.27;6.07;;;;;;;;;;5095747;28;20023;-74
2023/03/23 07:29:40;;;;;;;16.00;7.03;;;;;;;;;;5116632;28;20072;-75
2023/03/23 07:32:06;;;;;;;21.65;11.13;;;;;;;;;;5113205;28;20241;-75
2023/03/23 07:34:33;;;;;;;13.57;6.45;;;;;;;;;;5113816;28;20420;-74
2023/03/23 07:37:00;;;;;;;13.07;6.32;;;;;;;;;;5113681;28;20020;-74
2023/03/23 07:39:26;;;;;;;13.80;6.32;;;;;;;;;;5113383;28;20103;-73
2023/03/23 07:41:52;;;;;;;21.38;7.05;;;;;;;;;;5113254;28;20397;-72
2023/03/23 07:44:18;;;;;;;13.93;6.35;;;;;;;;;;5113474;28;20085;-73
2023/03/23 07:46:44;;;;;;;13.23;6.13;;;;;;;;;;5113103;28;20389;-75
2023/03/23 07:49:10;;;;;;;12.98;6.30;;;;;;;;;;5114707;28;20049;-76
2023/03/23 07:51:38;;;;;;;13.82;6.70;;;;;;;;;;5116165;28;20023;-75
2023/03/23 07:54:04;;;;;;;17.60;7.00;;;;;;;;;;5115035;28;20039;-72
2023/03/23 07:56:31;;;;;;;18.15;7.57;;;;;;;;;;5114141;28;20028;-73
2023/03/23 07:58:57;;;;;;;10.13;4.15;;;;;;;;;;5114065;28;20401;-72
2023/03/23 08:01:23;;;;;;;9.95;3.85;;;;;;;;;;5114786;28;20028;-71
2023/03/23 08:03:51;;;;;;;7.10;1.80;;;;;;;;;;5112854;28;20493;-71
2023/03/23 08:06:17;;;;;;;4.05;1.60;;;;;;;;;;5113940;28;20107;-72
2023/03/23 08:08:43;;;;;;;6.15;1.70;;;;;;;;;;5113758;28;20496;-73
2023/03/23 08:11:09;;;;;;;6.70;2.20;;;;;;;;;;5113771;28;20063;-75
2023/03/23 08:13:35;;;;;;;7.63;2.30;;;;;;;;;;5114812;28;20019;-75
2023/03/23 08:16:04;;;;;;;4.93;1.40;;;;;;;;;;5113600;28;20080;-71
2023/03/23 08:18:31;;;;;;;8.25;1.60;;;;;;;;;;5113337;28;20134;-73
2023/03/23 08:20:58;;;;;;;4.30;1.73;;;;;;;;;;5113233;28;20096;-72
2023/03/23 08:23:24;;;;;;;7.25;1.23;;;;;;;;;;5112460;28;20051;-73
2023/03/23 08:25:50;;;;;;;7.22;1.50;;;;;;;;;;5112723;28;20031;-72
2023/03/23 08:28:16;;;;;;;9.18;1.50;;;;;;;;;;5112500;28;20496;-73
2023/03/23 08:30:42;;;;;;;4.50;1.30;;;;;;;;;;5112545;28;20066;-73
2023/03/23 08:33:10;;;;;;;7.82;1.70;;;;;;;;;;5112429;28;20477;-73
2023/03/23 08:35:36;;;;;;;7.32;1.90;;;;;;;;;;5112732;28;20016;-72
2023/03/23 08:38:03;;;;;;;7.65;1.77;;;;;;;;;;5112709;28;20028;-73
2023/03/23 08:40:29;;;;;;;7.93;1.83;;;;;;;;;;5112480;28;20057;-74
2023/03/23 08:42:56;;;;;;;7.45;2.30;;;;;;;;;;5119971;28;20023;-76
2023/03/23 08:45:23;;;;;;;10.13;2.35;;;;;;;;;;5102894;28;20063;-76
2023/03/23 08:47:51;;;;;;;8.40;2.85;;;;;;;;;;5127798;28;20037;-75
2023/03/23 08:50:21;;;;;;;17.88;2.60;;;;;;;;;;5127211;28;20026;-77
2023/03/23 08:52:47;;;;;;;11.13;2.53;;;;;;;;;;5106499;28;20027;-75
2023/03/23 08:55:15;;;;;;;13.43;2.90;;;;;;;;;;5122165;28;20430;-75
2023/03/23 08:57:42;;;;;;;10.48;2.88;;;;;;;;;;5125309;28;20051;-75
2023/03/23 09:00:17;;;;;;;5.50;2.03;;;;;;;;;;5102451;28;20354;-75
2023/03/23 09:02:44;;;;;;;9.27;2.40;;;;;;;;;;5122116;28;20023;-75
2023/03/23 09:05:11;;;;;;;9.43;2.55;;;;;;;;;;5118603;28;20104;-78
2023/03/23 09:07:41;;;;;;;11.60;3.03;;;;;;;;;;5118280;28;20592;-75
2023/03/23 09:10:07;;;;;;;9.40;2.55;;;;;;;;;;5116718;28;20469;-74
2023/03/23 09:12:33;;;;;;;11.48;3.47;;;;;;;;;;5116975;28;20377;-77
2023/03/23 09:15:01;;;;;;;12.30;3.20;;;;;;;;;;5092428;28;20024;-72
2023/03/23 09:17:26;;;;;;;12.43;2.80;;;;;;;;;;5112658;28;20035;-73
2023/03/23 09:19:53;;;;;;;10.30;2.83;;;;;;;;;;5114365;27;20385;-72
2023/03/23 09:22:19;;;;;;;9.98;2.80;;;;;;;;;;5132713;27;20035;-73
2023/03/23 09:24:46;;;;;;;10.52;2.90;;;;;;;;;;5132811;27;20030;-71
2023/03/23 09:27:12;;;;;;;11.38;3.05;;;;;;;;;;5133134;27;20023;-73
2023/03/23 09:29:38;;;;;;;14.13;3.20;;;;;;;;;;5132933;27;20033;-73
2023/03/23 09:32:04;;;;;;;15.98;3.30;;;;;;;;;;5132263;27;20114;-72
2023/03/23 09:34:30;;;;;;;22.00;4.68;;;;;;;;;;5133015;27;20019;-72
2023/03/23 09:36:56;;;;;;;12.27;3.30;;;;;;;;;;5132697;27;20514;-71
2023/03/23 09:39:22;;;;;;;18.27;4.00;;;;;;;;;;5135833;27;20020;-70
2023/03/23 09:41:49;;;;;;;15.15;2.95;;;;;;;;;;5135265;27;20027;-73
2023/03/23 09:44:33;;;;;;;14.75;3.10;;;;;;;;;;5117570;27;20030;-72
2023/03/23 09:47:04;;;;;;;57.88;10.52;;;;;;;;;;5136361;27;20027;-71
2023/03/23 09:49:35;;;;;;;28.15;5.28;;;;;;;;;;5134322;27;20080;-70
2023/03/23 09:52:04;;;;;;;31.13;5.80;;;;;;;;;;5132879;27;20111;-71
2023/03/23 09:54:36;;;;;;;20.35;3.50;;;;;;;;;;5134063;28;20048;-71
2023/03/23 09:57:02;;;;;;;17.55;3.47;;;;;;;;;;5133760;28;20027;-71
2023/03/23 09:59:36;;;;;;;15.82;3.10;;;;;;;;;;5134145;28;20027;-71
2023/03/23 10:02:17;;;;;;;25.08;4.57;;;;;;;;;;5134702;27;20031;-72
2023/03/23 10:04:43;;;;;;;20.63;3.80;;;;;;;;;;5134684;28;20380;-71
2023/03/23 10:07:13;;;;;;;19.38;3.85;;;;;;;;;;5135089;28;20054;-71
2023/03/23 10:09:39;;;;;;;18.27;3.45;;;;;;;;;;5133741;28;20113;-74
2023/03/23 10:12:16;;;;;;;18.83;3.50;;;;;;;;;;5135050;28;20027;-74
2023/03/23 10:14:45;;;;;;;20.92;4.15;;;;;;;;;;5136587;28;20023;-73
2023/03/23 10:17:15;;;;;;;15.65;2.90;;;;;;;;;;5136140;28;20026;-72
2023/03/23 10:19:59;;;;;;;22.77;3.10;;;;;;;;;;5138793;27;20029;-75
2023/03/23 10:22:39;;;;;;;16.40;3.00;;;;;;;;;;5136038;28;20038;-74
2023/03/23 10:25:11;;;;;;;19.52;3.55;;;;;;;;;;5135360;28;20561;-76
2023/03/23 10:27:44;;;;;;;20.00;3.10;;;;;;;;;;5136832;27;20027;-77
2023/03/23 10:30:28;;;;;;;17.40;3.72;;;;;;;;;;5138431;27;20027;-71
2023/03/23 10:33:05;;;;;;;17.45;3.30;;;;;;;;;;5140283;27;20087;-73
2023/03/23 10:35:38;;;;;;;21.42;4.60;;;;;;;;;;5139329;27;20480;-72
2023/03/23 10:38:07;;;;;;;17.58;4.05;;;;;;;;;;5139944;27;20027;-72
2023/03/23 10:40:35;;;;;;;16.95;3.65;;;;;;;;;;5140539;27;20027;-72
2023/03/23 10:43:01;;;;;;;23.50;3.75;;;;;;;;;;5139154;27;20031;-74
2023/03/23 10:45:32;;;;;;;23.63;3.50;;;;;;;;;;5138663;27;20035;-73
2023/03/23 10:48:14;;;;;;;23.45;3.83;;;;;;;;;;5138497;27;20062;-75
2023/03/23 10:50:43;;;;;;;17.30;3.33;;;;;;;;;;5138340;27;20391;-73
2023/03/23 10:53:16;;;;;;;20.60;3.75;;;;;;;;;;5136871;27;20384;-72
2023/03/23 10:55:44;;;;;;;19.98;4.05;;;;;;;;;;5136853;27;20012;-71
2023/03/23 10:58:12;;;;;;;25.52;3.65;;;;;;;;;;5136513;27;20098;-75
2023/03/23 11:00:43;;;;;;;18.40;3.60;;;;;;;;;;5136825;27;20050;-74
2023/03/23 11:03:15;;;;;;;25.67;4.40;;;;;;;;;;5136583;27;20031;-73
2023/03/23 11:05:48;;;;;;;20.95;3.80;;;;;;;;;;5136030;27;20098;-75
2023/03/23 11:08:16;;;;;;;23.67;4.60;;;;;;;;;;5136013;27;20511;-74
2023/03/23 11:10:48;;;;;;;22.20;3.92;;;;;;;;;;5136141;27;20083;-73
2023/03/23 11:13:16;;;;;;;25.58;6.38;;;;;;;;;;5137979;27;20019;-71
2023/03/23 11:15:45;;;;;;;20.77;4.57;;;;;;;;;;5136146;27;20491;-71
2023/03/23 11:18:23;;;;;;;24.45;4.05;;;;;;;;;;5135724;27;20065;-71
2023/03/23 11:20:51;;;;;;;22.08;4.47;;;;;;;;;;5135588;27;20031;-72
2023/03/23 11:23:21;;;;;;;28.63;4.78;;;;;;;;;;5135234;27;20054;-72
2023/03/23 11:25:53;;;;;;;33.15;4.70;;;;;;;;;;5135819;27;20027;-72
2023/03/23 11:28:19;;;;;;;28.08;4.53;;;;;;;;;;5135710;27;20019;-73
2023/03/23 11:30:46;;;;;;;30.35;6.20;;;;;;;;;;5135823;27;20502;-72
2023/03/23 11:33:15;;;;;;;26.05;5.15;;;;;;;;;;5136278;27;20019;-72
2023/03/23 11:35:43;;;;;;;33.10;5.43;;;;;;;;;;5135699;27;20620;-72
2023/03/23 11:38:19;;;;;;;28.50;4.63;;;;;;;;;;5135435;27;20155;-72
2023/03/23 11:40:49;;;;;;;31.17;5.68;;;;;;;;;;5135366;27;20442;-71
2023/03/23 11:43:19;;;;;;;30.25;4.97;;;;;;;;;;5135182;27;20034;-72
2023/03/23 11:45:55;;;;;;;28.52;4.55;;;;;;;;;;5135511;27;20452;-71
2023/03/23 11:48:21;;;;;;;22.00;4.22;;;;;;;;;;5135232;27;20023;-72
2023/03/23 11:50:50;;;;;;;29.08;4.50;;;;;;;;;;5134624;27;20564;-71
2023/03/23 11:53:36;;;;;;;29.50;4.75;;;;;;;;;;5134913;27;20034;-72
2023/03/23 11:56:11;;;;;;;34.47;5.45;;;;;;;;;;5135098;27;20035;-73
2023/03/23 11:58:37;;;;;;;33.08;5.03;;;;;;;;;;5136921;27;20019;-72
2023/03/23 12:01:15;;;;;;;29.58;4.80;;;;;;;;;;5136152;27;20401;-73
2023/03/23 12:03:57;;;;;;;28.05;5.10;;;;;;;;;;5135561;27;20039;-73
2023/03/23 12:06:43;;;;;;;29.08;4.35;;;;;;;;;;5135100;27;20023;-72
2023/03/23 12:09:12;;;;;;;29.77;4.78;;;;;;;;;;5141665;27;20031;-71
2023/03/23 12:11:42;;;;;;;36.65;5.13;;;;;;;;;;5136459;27;20046;-71
2023/03/23 12:14:21;;;;;;;26.58;4.65;;;;;;;;;;5134597;27;20036;-72
2023/03/23 12:16:50;;;;;;;21.73;4.18;;;;;;;;;;5134311;27;20106;-72
2023/03/23 12:19:19;;;;;;;30.58;4.43;;;;;;;;;;5134784;27;20058;-71
2023/03/23 12:21:53;;;;;;;24.65;4.63;;;;;;;;;;5134030;27;20495;-72
2023/03/23 12:24:29;;;;;;;23.70;3.93;;;;;;;;;;5134347;27;20473;-72
2023/03/23 12:27:03;;;;;;;27.38;4.18;;;;;;;;;;5132944;27;20027;-71
2023/03/23 12:29:32;;;;;;;26.45;6.28;;;;;;;;;;5133049;27;20015;-72
2023/03/23 12:32:01;;;;;;;22.13;3.80;;;;;;;;;;5132310;27;20557;-73
2023/03/23 12:34:34;;;;;;;23.92;4.65;;;;;;;;;;5132927;27;20046;-72
2023/03/23 12:37:19;;;;;;;27.45;4.03;;;;;;;;;;5132888;27;20030;-73
2023/03/23 12:39:50;;;;;;;27.95;5.00;;;;;;;;;;5132637;27;20016;-71
2023/03/23 12:42:25;;;;;;;27.20;4.25;;;;;;;;;;5132802;27;20027;-72
2023/03/23 12:44:51;;;;;;;;;;;;;;;;;;5133566;27;20350;-71
2023/03/23 12:47:35;;;;;;;19.33;3.88;;;;;;;;;;5132695;27;19914;-74
2023/03/23 12:50:08;;;;;;;25.60;3.80;;;;;;;;;;5131556;27;20039;-73
2023/03/23 12:52:45;;;;;;;27.38;4.32;;;;;;;;;;5133295;27;20019;-74
2023/03/23 12:55:18;;;;;;;15.10;4.03;;;;;;;;;;5133769;27;20045;-73
2023/03/23 12:57:48;;;;;;;21.45;4.30;;;;;;;;;;5133848;27;20111;-71
2023/03/23 13:00:20;;;;;;;19.17;4.10;;;;;;;;;;5135750;27;20015;-72
2023/03/23 13:02:53;;;;;;;20.80;4.10;;;;;;;;;;5133122;27;20492;-72
2023/03/23 13:05:23;;;;;;;23.15;4.45;;;;;;;;;;5134014;27;20388;-72
2023/03/23 13:07:55;;;;;;;26.08;4.75;;;;;;;;;;5135048;27;20035;-70
2023/03/23 13:10:30;;;;;;;21.33;4.13;;;;;;;;;;5133806;27;20026;-71
2023/03/23 13:12:56;;;;;;;20.92;3.85;;;;;;;;;;5135616;27;20472;-72
2023/03/23 13:15:37;;;;;;;15.43;4.07;;;;;;;;;;5135344;27;20043;-71
2023/03/23 13:18:22;;;;;;;21.40;3.75;;;;;;;;;;5114853;27;20160;-73
2023/03/23 13:20:48;;;;;;;;;;;;;;;;;;5133789;27;20052;-74
2023/03/23 13:23:26;;;;;;;19.83;4.28;;;;;;;;;;5116487;27;19994;-72
2023/03/23 13:25:56;;;;;;;20.75;4.18;;;;;;;;;;5103834;28;20107;-73
2023/03/23 13:28:26;;;;;;;28.33;4.78;;;;;;;;;;5125858;27;20030;-73
2023/03/23 13:30:55;;;;;;;20.83;4.45;;;;;;;;;;5133060;27;20058;-72
2023/03/23 13:33:21;;;;;;;20.45;4.07;;;;;;;;;;5133105;27;20044;-73
2023/03/23 13:35:49;;;;;;;21.83;4.63;;;;;;;;;;5134011;27;20026;-73
2023/03/23 13:38:24;;;;;;;19.17;3.75;;;;;;;;;;5121368;27;20026;-73
2023/03/23 13:40:50;;;;;;;20.27;3.42;;;;;;;;;;5113753;28;20026;-74
2023/03/23 13:43:26;;;;;;;25.98;4.30;;;;;;;;;;5113904;28;20508;-73
2023/03/23 13:45:55;;;;;;;23.40;5.30;;;;;;;;;;5095226;28;20056;-73
2023/03/23 13:48:23;;;;;;;16.23;3.95;;;;;;;;;;5114638;27;20019;-73
2023/03/23 13:50:56;;;;;;;13.18;3.53;;;;;;;;;;5114466;28;20077;-72
2023/03/23 13:53:43;;;;;;;18.63;3.20;;;;;;;;;;5114393;28;20080;-71
2023/03/23 13:56:29;;;;;;;6.80;1.70;;;;;;;;;;5109642;28;20043;-74
2023/03/23 13:59:13;;;;;;;14.93;2.47;;;;;;;;;;5089367;28;20693;-72
2023/03/23 14:01:41;;;;;;;9.03;3.00;;;;;;;;;;5111055;28;20028;-72
2023/03/23 14:04:10;;;;;;;5.68;1.42;;;;;;;;;;5115710;28;20728;-73
2023/03/23 14:06:37;;;;;;;8.95;1.48;;;;;;;;;;5114864;28;20036;-74
2023/03/23 14:09:09;;;;;;;9.55;2.30;;;;;;;;;;5115478;28;20031;-73
2023/03/23 14:11:45;;;;;;;7.13;2.28;;;;;;;;;;5116028;28;20019;-71
2023/03/23 14:14:35;;;;;;;20.35;6.55;;;;;;;;;;5115990;28;20036;-71
2023/03/23 14:17:09;;;;;;;9.27;2.33;;;;;;;;;;5096903;28;20055;-71
2023/03/23 14:19:38;;;;;;;13.50;2.92;;;;;;;;;;5112636;28;20043;-74
2023/03/23 14:22:04;;;;;;;10.98;2.40;;;;;;;;;;5116014;28;20028;-73
2023/03/23 14:24:31;;;;;;;8.98;2.65;;;;;;;;;;5116906;28;20039;-73
2023/03/23 14:27:24;;;;;;;10.30;2.92;;;;;;;;;;5116728;28;20023;-72
2023/03/23 14:29:59;;;;;;;8.48;1.98;;;;;;;;;;5112685;28;20035;-73
2023/03/23 14:32:27;;;;;;;14.35;2.45;;;;;;;;;;5115827;28;20034;-75
2023/03/23 14:34:54;;;;;;;9.77;2.78;;;;;;;;;;5114450;28;20090;-72
2023/03/23 14:37:21;;;;;;;14.68;5.45;;;;;;;;;;5115354;28;20028;-73